sensor_id;sensor_type;location;lat;lon;timestamp;temperature;humidity
2497;DHT22;1259;48.306;14.374;2023-08-30T00:02:10;13.40;99.90
2497;DHT22;1259;48.306;14.374;2023-08-30T00:04:36;13.30;99.90
2497;DHT22;1259;48.306;14.374;2023-08-30T00:07:03;13.40;99.90
2497;DHT22;1259;48.306;14.374;2023-08-30T00:09:30;13.40;99.90
2497;DHT22;1259;48.306;14.374;2023-08-30T00:11:57;13.40;99.90
2497;DHT22;1259;48.306;14.374;2023-08-30T00:14:23;13.40;99.90
2497;DHT22;1259;48.306;14.374;2023-08-30T00:16:52;13.50;99.90
2497;DHT22;1259;48.306;14.374;2023-08-30T00:19:19;13.40;99.90
2497;DHT22;1259;48.306;14.374;2023-08-30T00:21:46;13.40;99.90
2497;DHT22;1259;48.306;14.374;2023-08-30T00:24:12;13.40;99.90
2497;DHT22;1259;48.306;14.374;2023-08-30T00:26:40;13.40;99.90
2497;DHT22;1259;48.306;14.374;2023-08-30T00:29:06;13.40;99.90
2497;DHT22;1259;48.306;14.374;2023-08-30T00:31:33;13.40;99.90
2497;DHT22;1259;48.306;14.374;2023-08-30T00:34:01;13.40;99.90
2497;DHT22;1259;48.306;14.374;2023-08-30T00:36:28;13.40;99.90
2497;DHT22;1259;48.306;14.374;2023-08-30T00:38:54;13.40;99.90
2497;DHT22;1259;48.306;14.374;2023-08-30T00:41:21;13.40;99.90
2497;DHT22;1259;48.306;14.374;2023-08-30T00:43:48;13.40;99.90
2497;DHT22;1259;48.306;14.374;2023-08-30T00:46:14;13.30;99.90
2497;DHT22;1259;48.306;14.374;2023-08-30T00:48:41;13.30;99.90
2497;DHT22;1259;48.306;14.374;2023-08-30T00:51:09;13.30;99.90
2497;DHT22;1259;48.306;14.374;2023-08-30T00:53:36;13.30;99.90
2497;DHT22;1259;48.306;14.374;2023-08-30T00:56:03;13.30;99.90
2497;DHT22;1259;48.306;14.374;2023-08-30T00:58:30;13.30;99.90
2497;DHT22;1259;48.306;14.374;2023-08-30T01:00:56;13.30;99.90
2497;DHT22;1259;48.306;14.374;2023-08-30T01:03:23;13.30;99.90
2497;DHT22;1259;48.306;14.374;2023-08-30T01:05:50;13.20;99.90
2497;DHT22;1259;48.306;14.374;2023-08-30T01:08:18;13.20;99.90
2497;DHT22;1259;48.306;14.374;2023-08-30T01:10:47;13.30;99.90
2497;DHT22;1259;48.306;14.374;2023-08-30T01:13:18;13.30;99.90
2497;DHT22;1259;48.306;14.374;2023-08-30T01:15:46;13.20;99.90
2497;DHT22;1259;48.306;14.374;2023-08-30T01:18:13;13.20;99.90
2497;DHT22;1259;48.306;14.374;2023-08-30T01:20:40;13.20;99.90
2497;DHT22;1259;48.306;14.374;2023-08-30T01:23:21;13.20;99.90
2497;DHT22;1259;48.306;14.374;2023-08-30T01:25:53;13.20;99.90
2497;DHT22;1259;48.306;14.374;2023-08-30T01:28:23;13.20;99.90
2497;DHT22;1259;48.306;14.374;2023-08-30T01:30:50;13.20;99.90
2497;DHT22;1259;48.306;14.374;2023-08-30T01:33:19;13.20;99.90
2497;DHT22;1259;48.306;14.374;2023-08-30T01:35:47;13.20;99.90
2497;DHT22;1259;48.306;14.374;2023-08-30T01:38:13;13.20;99.90
2497;DHT22;1259;48.306;14.374;2023-08-30T01:40:41;13.30;99.90
2497;DHT22;1259;48.306;14.374;2023-08-30T01:43:08;13.30;99.90
2497;DHT22;1259;48.306;14.374;2023-08-30T01:45:38;13.20;99.90
2497;DHT22;1259;48.306;14.374;2023-08-30T01:48:06;13.20;99.90
2497;DHT22;1259;48.306;14.374;2023-08-30T01:50:33;13.20;99.90
2497;DHT22;1259;48.306;14.374;2023-08-30T01:53:00;13.20;99.90
2497;DHT22;1259;48.306;14.374;2023-08-30T01:55:28;13.20;99.90
2497;DHT22;1259;48.306;14.374;2023-08-30T01:57:56;13.10;99.90
2497;DHT22;1259;48.306;14.374;2023-08-30T02:00:22;13.10;99.90
2497;DHT22;1259;48.306;14.374;2023-08-30T02:02:50;13.10;99.90
2497;DHT22;1259;48.306;14.374;2023-08-30T02:05:17;13.10;99.90
2497;DHT22;1259;48.306;14.374;2023-08-30T02:07:46;13.10;99.90
2497;DHT22;1259;48.306;14.374;2023-08-30T02:10:17;13.10;99.90
2497;DHT22;1259;48.306;14.374;2023-08-30T02:12:49;13.00;99.90
2497;DHT22;1259;48.306;14.374;2023-08-30T02:15:17;13.00;99.90
2497;DHT22;1259;48.306;14.374;2023-08-30T02:17:45;13.00;99.90
2497;DHT22;1259;48.306;14.374;2023-08-30T02:20:13;13.00;99.90
2497;DHT22;1259;48.306;14.374;2023-08-30T02:22:40;13.00;99.90
2497;DHT22;1259;48.306;14.374;2023-08-30T02:25:07;13.00;99.90
2497;DHT22;1259;48.306;14.374;2023-08-30T02:27:33;13.00;99.90
2497;DHT22;1259;48.306;14.374;2023-08-30T02:30:01;13.00;99.90
2497;DHT22;1259;48.306;14.374;2023-08-30T02:32:28;13.00;99.90
2497;DHT22;1259;48.306;14.374;2023-08-30T02:34:55;13.00;99.90
2497;DHT22;1259;48.306;14.374;2023-08-30T02:37:23;13.00;99.90
2497;DHT22;1259;48.306;14.374;2023-08-30T02:39:50;13.00;99.90
2497;DHT22;1259;48.306;14.374;2023-08-30T02:42:17;13.10;99.90
2497;DHT22;1259;48.306;14.374;2023-08-30T02:44:44;13.00;99.90
2497;DHT22;1259;48.306;14.374;2023-08-30T02:47:10;13.00;99.90
2497;DHT22;1259;48.306;14.374;2023-08-30T02:49:37;13.00;99.90
2497;DHT22;1259;48.306;14.374;2023-08-30T02:52:04;13.00;99.90
2497;DHT22;1259;48.306;14.374;2023-08-30T02:54:32;13.10;99.90
2497;DHT22;1259;48.306;14.374;2023-08-30T02:56:58;13.00;99.90
2497;DHT22;1259;48.306;14.374;2023-08-30T02:59:25;13.00;99.90
2497;DHT22;1259;48.306;14.374;2023-08-30T03:01:52;13.10;99.90
2497;DHT22;1259;48.306;14.374;2023-08-30T03:04:18;13.00;99.90
2497;DHT22;1259;48.306;14.374;2023-08-30T03:06:45;13.00;99.90
2497;DHT22;1259;48.306;14.374;2023-08-30T03:09:12;13.00;99.90
2497;DHT22;1259;48.306;14.374;2023-08-30T03:11:41;13.10;99.90
2497;DHT22;1259;48.306;14.374;2023-08-30T03:14:07;13.00;99.90
2497;DHT22;1259;48.306;14.374;2023-08-30T03:16:34;13.00;99.90
2497;DHT22;1259;48.306;14.374;2023-08-30T03:19:01;13.00;99.90
2497;DHT22;1259;48.306;14.374;2023-08-30T03:21:28;13.00;99.90
2497;DHT22;1259;48.306;14.374;2023-08-30T03:23:55;13.00;99.90
2497;DHT22;1259;48.306;14.374;2023-08-30T03:26:21;13.00;99.90
2497;DHT22;1259;48.306;14.374;2023-08-30T03:28:49;13.00;99.90
2497;DHT22;1259;48.306;14.374;2023-08-30T03:31:16;13.00;99.90
2497;DHT22;1259;48.306;14.374;2023-08-30T03:33:44;13.00;99.90
2497;DHT22;1259;48.306;14.374;2023-08-30T03:36:11;13.00;99.90
2497;DHT22;1259;48.306;14.374;2023-08-30T03:38:38;13.00;99.90
2497;DHT22;1259;48.306;14.374;2023-08-30T03:41:05;13.10;99.90
2497;DHT22;1259;48.306;14.374;2023-08-30T03:43:32;13.10;99.90
2497;DHT22;1259;48.306;14.374;2023-08-30T03:46:00;13.10;99.90
2497;DHT22;1259;48.306;14.374;2023-08-30T03:48:28;13.00;99.90
2497;DHT22;1259;48.306;14.374;2023-08-30T03:50:55;13.10;99.90
2497;DHT22;1259;48.306;14.374;2023-08-30T03:53:22;13.10;99.90
2497;DHT22;1259;48.306;14.374;2023-08-30T03:55:48;13.10;99.90
2497;DHT22;1259;48.306;14.374;2023-08-30T03:58:15;13.10;99.90
2497;DHT22;1259;48.306;14.374;2023-08-30T04:00:42;13.10;99.90
2497;DHT22;1259;48.306;14.374;2023-08-30T04:03:10;13.10;99.90
2497;DHT22;1259;48.306;14.374;2023-08-30T04:05:36;13.10;99.90
2497;DHT22;1259;48.306;14.374;2023-08-30T04:08:03;13.10;99.90
2497;DHT22;1259;48.306;14.374;2023-08-30T04:10:33;13.10;99.90
2497;DHT22;1259;48.306;14.374;2023-08-30T04:13:00;13.10;99.90
2497;DHT22;1259;48.306;14.374;2023-08-30T04:15:27;13.10;99.90
2497;DHT22;1259;48.306;14.374;2023-08-30T04:17:53;13.10;99.90
2497;DHT22;1259;48.306;14.374;2023-08-30T04:20:21;13.10;99.90
2497;DHT22;1259;48.306;14.374;2023-08-30T04:22:48;13.10;99.90
2497;DHT22;1259;48.306;14.374;2023-08-30T04:25:15;13.10;99.90
2497;DHT22;1259;48.306;14.374;2023-08-30T04:27:41;13.10;99.90
2497;DHT22;1259;48.306;14.374;2023-08-30T04:30:09;13.10;99.90
2497;DHT22;1259;48.306;14.374;2023-08-30T04:32:36;13.10;99.90
2497;DHT22;1259;48.306;14.374;2023-08-30T04:35:03;13.10;99.90
2497;DHT22;1259;48.306;14.374;2023-08-30T04:37:31;13.10;99.90
2497;DHT22;1259;48.306;14.374;2023-08-30T04:39:57;13.10;99.90
2497;DHT22;1259;48.306;14.374;2023-08-30T04:42:24;13.20;99.90
2497;DHT22;1259;48.306;14.374;2023-08-30T04:44:51;13.10;99.90
2497;DHT22;1259;48.306;14.374;2023-08-30T04:47:20;13.10;99.90
2497;DHT22;1259;48.306;14.374;2023-08-30T04:49:49;13.20;99.90
2497;DHT22;1259;48.306;14.374;2023-08-30T04:52:16;13.20;99.90
2497;DHT22;1259;48.306;14.374;2023-08-30T04:54:44;13.20;99.90
2497;DHT22;1259;48.306;14.374;2023-08-30T04:57:11;13.20;99.90
2497;DHT22;1259;48.306;14.374;2023-08-30T04:59:39;13.10;99.90
2497;DHT22;1259;48.306;14.374;2023-08-30T05:02:06;13.10;99.90
2497;DHT22;1259;48.306;14.374;2023-08-30T05:04:33;13.10;99.90
2497;DHT22;1259;48.306;14.374;2023-08-30T05:06:59;13.10;99.90
2497;DHT22;1259;48.306;14.374;2023-08-30T05:09:26;13.10;99.90
2497;DHT22;1259;48.306;14.374;2023-08-30T05:11:54;13.10;99.90
2497;DHT22;1259;48.306;14.374;2023-08-30T05:14:21;13.10;99.90
2497;DHT22;1259;48.306;14.374;2023-08-30T05:16:48;13.10;99.90
2497;DHT22;1259;48.306;14.374;2023-08-30T05:19:15;13.10;99.90
2497;DHT22;1259;48.306;14.374;2023-08-30T05:21:42;13.10;99.90
2497;DHT22;1259;48.306;14.374;2023-08-30T05:24:09;13.00;99.90
2497;DHT22;1259;48.306;14.374;2023-08-30T05:26:36;13.00;99.90
2497;DHT22;1259;48.306;14.374;2023-08-30T05:29:04;13.00;99.90
2497;DHT22;1259;48.306;14.374;2023-08-30T05:31:31;13.00;99.90
2497;DHT22;1259;48.306;14.374;2023-08-30T05:33:58;13.10;99.90
2497;DHT22;1259;48.306;14.374;2023-08-30T05:36:24;13.10;99.90
2497;DHT22;1259;48.306;14.374;2023-08-30T05:38:51;13.00;99.90
2497;DHT22;1259;48.306;14.374;2023-08-30T05:41:17;13.00;99.90
2497;DHT22;1259;48.306;14.374;2023-08-30T05:43:44;12.90;99.90
2497;DHT22;1259;48.306;14.374;2023-08-30T05:46:12;13.00;99.90
2497;DHT22;1259;48.306;14.374;2023-08-30T05:48:40;13.00;99.90
2497;DHT22;1259;48.306;14.374;2023-08-30T05:51:07;13.00;99.90
2497;DHT22;1259;48.306;14.374;2023-08-30T05:53:34;13.00;99.90
2497;DHT22;1259;48.306;14.374;2023-08-30T05:56:00;13.00;99.90
2497;DHT22;1259;48.306;14.374;2023-08-30T05:58:28;13.00;99.90
2497;DHT22;1259;48.306;14.374;2023-08-30T06:00:56;13.00;99.90
2497;DHT22;1259;48.306;14.374;2023-08-30T06:03:26;13.10;99.90
2497;DHT22;1259;48.306;14.374;2023-08-30T06:05:52;13.10;99.90
2497;DHT22;1259;48.306;14.374;2023-08-30T06:08:19;13.10;99.90
2497;DHT22;1259;48.306;14.374;2023-08-30T06:10:46;13.10;99.90
2497;DHT22;1259;48.306;14.374;2023-08-30T06:13:12;13.10;99.90
2497;DHT22;1259;48.306;14.374;2023-08-30T06:15:39;13.20;99.90
2497;DHT22;1259;48.306;14.374;2023-08-30T06:18:06;13.20;99.90
2497;DHT22;1259;48.306;14.374;2023-08-30T06:20:34;13.20;99.90
2497;DHT22;1259;48.306;14.374;2023-08-30T06:23:02;13.30;99.90
2497;DHT22;1259;48.306;14.374;2023-08-30T06:25:29;13.20;99.90
2497;DHT22;1259;48.306;14.374;2023-08-30T06:27:56;13.20;99.90
2497;DHT22;1259;48.306;14.374;2023-08-30T06:30:24;13.30;99.90
2497;DHT22;1259;48.306;14.374;2023-08-30T06:32:50;13.30;99.90
2497;DHT22;1259;48.306;14.374;2023-08-30T06:35:17;13.30;99.90
2497;DHT22;1259;48.306;14.374;2023-08-30T06:37:45;13.30;99.90
2497;DHT22;1259;48.306;14.374;2023-08-30T06:40:12;13.30;99.90
2497;DHT22;1259;48.306;14.374;2023-08-30T06:42:39;13.30;99.90
2497;DHT22;1259;48.306;14.374;2023-08-30T06:45:06;13.30;99.90
2497;DHT22;1259;48.306;14.374;2023-08-30T06:47:32;13.30;99.90
2497;DHT22;1259;48.306;14.374;2023-08-30T06:49:59;13.20;99.90
2497;DHT22;1259;48.306;14.374;2023-08-30T06:52:26;13.20;99.90
2497;DHT22;1259;48.306;14.374;2023-08-30T06:54:54;13.30;99.90
2497;DHT22;1259;48.306;14.374;2023-08-30T06:57:21;13.30;99.90
2497;DHT22;1259;48.306;14.374;2023-08-30T06:59:48;13.30;99.90
2497;DHT22;1259;48.306;14.374;2023-08-30T07:02:14;13.30;99.90
2497;DHT22;1259;48.306;14.374;2023-08-30T07:04:41;13.30;99.90
2497;DHT22;1259;48.306;14.374;2023-08-30T07:07:08;13.30;99.90
2497;DHT22;1259;48.306;14.374;2023-08-30T07:09:34;13.30;99.90
2497;DHT22;1259;48.306;14.374;2023-08-30T07:12:03;13.40;99.90
2497;DHT22;1259;48.306;14.374;2023-08-30T07:14:30;13.40;99.90
2497;DHT22;1259;48.306;14.374;2023-08-30T07:16:56;13.50;99.90
2497;DHT22;1259;48.306;14.374;2023-08-30T07:19:24;13.40;99.90
2497;DHT22;1259;48.306;14.374;2023-08-30T07:21:51;13.40;99.90
2497;DHT22;1259;48.306;14.374;2023-08-30T07:24:18;13.50;99.90
2497;DHT22;1259;48.306;14.374;2023-08-30T07:26:45;13.60;99.90
2497;DHT22;1259;48.306;14.374;2023-08-30T07:29:13;13.60;99.90
2497;DHT22;1259;48.306;14.374;2023-08-30T07:31:40;13.70;99.90
2497;DHT22;1259;48.306;14.374;2023-08-30T07:34:07;13.70;99.90
2497;DHT22;1259;48.306;14.374;2023-08-30T07:36:34;13.70;99.90
2497;DHT22;1259;48.306;14.374;2023-08-30T07:39:00;13.70;99.90
2497;DHT22;1259;48.306;14.374;2023-08-30T07:41:28;13.70;99.90
2497;DHT22;1259;48.306;14.374;2023-08-30T07:43:55;13.70;99.90
2497;DHT22;1259;48.306;14.374;2023-08-30T07:46:23;13.70;99.90
2497;DHT22;1259;48.306;14.374;2023-08-30T07:48:51;13.80;99.90
2497;DHT22;1259;48.306;14.374;2023-08-30T07:51:17;13.80;99.90
2497;DHT22;1259;48.306;14.374;2023-08-30T07:53:44;13.70;99.90
2497;DHT22;1259;48.306;14.374;2023-08-30T07:56:11;13.70;99.90
2497;DHT22;1259;48.306;14.374;2023-08-30T07:58:37;13.80;99.90
2497;DHT22;1259;48.306;14.374;2023-08-30T08:01:04;13.80;99.90
2497;DHT22;1259;48.306;14.374;2023-08-30T08:03:32;13.80;99.90
2497;DHT22;1259;48.306;14.374;2023-08-30T08:05:59;13.80;99.90
2497;DHT22;1259;48.306;14.374;2023-08-30T08:08:26;13.80;99.90
2497;DHT22;1259;48.306;14.374;2023-08-30T08:10:53;13.80;99.90
2497;DHT22;1259;48.306;14.374;2023-08-30T08:13:19;13.70;99.90
2497;DHT22;1259;48.306;14.374;2023-08-30T08:15:46;13.90;99.90
2497;DHT22;1259;48.306;14.374;2023-08-30T08:18:12;14.00;99.90
2497;DHT22;1259;48.306;14.374;2023-08-30T08:20:41;14.00;99.90
2497;DHT22;1259;48.306;14.374;2023-08-30T08:23:08;14.00;99.90
2497;DHT22;1259;48.306;14.374;2023-08-30T08:25:35;14.10;99.90
2497;DHT22;1259;48.306;14.374;2023-08-30T08:28:02;14.20;99.90
2497;DHT22;1259;48.306;14.374;2023-08-30T08:30:29;14.20;99.90
2497;DHT22;1259;48.306;14.374;2023-08-30T08:32:57;14.20;99.90
2497;DHT22;1259;48.306;14.374;2023-08-30T08:35:24;14.30;99.90
2497;DHT22;1259;48.306;14.374;2023-08-30T08:37:52;14.30;99.90
2497;DHT22;1259;48.306;14.374;2023-08-30T08:40:18;14.30;99.90
2497;DHT22;1259;48.306;14.374;2023-08-30T08:42:45;14.40;99.90
2497;DHT22;1259;48.306;14.374;2023-08-30T08:45:12;14.30;99.90
2497;DHT22;1259;48.306;14.374;2023-08-30T08:47:39;14.30;99.90
2497;DHT22;1259;48.306;14.374;2023-08-30T08:50:06;14.40;99.90
2497;DHT22;1259;48.306;14.374;2023-08-30T08:52:33;14.40;99.90
2497;DHT22;1259;48.306;14.374;2023-08-30T08:55:01;14.40;99.90
2497;DHT22;1259;48.306;14.374;2023-08-30T08:57:28;14.40;99.90
2497;DHT22;1259;48.306;14.374;2023-08-30T08:59:56;14.40;99.90
2497;DHT22;1259;48.306;14.374;2023-08-30T09:02:23;14.40;99.90
2497;DHT22;1259;48.306;14.374;2023-08-30T09:04:50;14.40;99.90
2497;DHT22;1259;48.306;14.374;2023-08-30T09:07:17;14.50;99.90
2497;DHT22;1259;48.306;14.374;2023-08-30T09:09:45;14.50;99.90
2497;DHT22;1259;48.306;14.374;2023-08-30T09:12:13;14.50;99.90
2497;DHT22;1259;48.306;14.374;2023-08-30T09:14:40;14.60;99.90
2497;DHT22;1259;48.306;14.374;2023-08-30T09:17:07;14.60;99.90
2497;DHT22;1259;48.306;14.374;2023-08-30T09:19:34;14.70;99.90
2497;DHT22;1259;48.306;14.374;2023-08-30T09:22:00;14.70;99.90
2497;DHT22;1259;48.306;14.374;2023-08-30T09:24:37;14.80;99.90
2497;DHT22;1259;48.306;14.374;2023-08-30T09:27:04;14.80;99.90
2497;DHT22;1259;48.306;14.374;2023-08-30T09:29:32;14.90;99.90
2497;DHT22;1259;48.306;14.374;2023-08-30T09:31:58;14.90;99.90
2497;DHT22;1259;48.306;14.374;2023-08-30T09:34:27;15.00;99.90
2497;DHT22;1259;48.306;14.374;2023-08-30T09:36:54;14.90;99.90
2497;DHT22;1259;48.306;14.374;2023-08-30T09:39:21;14.90;99.90
2497;DHT22;1259;48.306;14.374;2023-08-30T09:41:48;15.00;99.90
2497;DHT22;1259;48.306;14.374;2023-08-30T09:44:15;15.20;99.90
2497;DHT22;1259;48.306;14.374;2023-08-30T09:46:44;15.10;99.90
2497;DHT22;1259;48.306;14.374;2023-08-30T09:49:11;15.30;99.90
2497;DHT22;1259;48.306;14.374;2023-08-30T09:51:38;15.30;99.90
2497;DHT22;1259;48.306;14.374;2023-08-30T09:54:06;15.30;99.90
2497;DHT22;1259;48.306;14.374;2023-08-30T09:56:36;15.40;99.90
2497;DHT22;1259;48.306;14.374;2023-08-30T09:59:03;15.30;99.90
2497;DHT22;1259;48.306;14.374;2023-08-30T10:01:31;15.40;99.90
2497;DHT22;1259;48.306;14.374;2023-08-30T10:03:59;15.40;99.90
2497;DHT22;1259;48.306;14.374;2023-08-30T10:06:26;15.40;99.90
2497;DHT22;1259;48.306;14.374;2023-08-30T10:08:53;15.50;99.90
2497;DHT22;1259;48.306;14.374;2023-08-30T10:11:21;15.60;99.90
2497;DHT22;1259;48.306;14.374;2023-08-30T10:13:47;15.50;99.90
2497;DHT22;1259;48.306;14.374;2023-08-30T10:16:15;15.60;99.90
2497;DHT22;1259;48.306;14.374;2023-08-30T10:18:45;15.60;99.90
2497;DHT22;1259;48.306;14.374;2023-08-30T10:21:14;15.70;99.90
2497;DHT22;1259;48.306;14.374;2023-08-30T10:23:41;15.80;99.90
2497;DHT22;1259;48.306;14.374;2023-08-30T10:26:08;16.00;99.90
2497;DHT22;1259;48.306;14.374;2023-08-30T10:28:35;16.10;99.90
2497;DHT22;1259;48.306;14.374;2023-08-30T10:31:02;16.30;99.90
2497;DHT22;1259;48.306;14.374;2023-08-30T10:33:29;16.40;99.90
2497;DHT22;1259;48.306;14.374;2023-08-30T10:36:02;16.40;99.90
2497;DHT22;1259;48.306;14.374;2023-08-30T10:38:32;16.50;99.90
2497;DHT22;1259;48.306;14.374;2023-08-30T10:41:06;16.30;99.90
2497;DHT22;1259;48.306;14.374;2023-08-30T10:43:34;16.30;99.90
2497;DHT22;1259;48.306;14.374;2023-08-30T10:46:01;16.40;99.90
2497;DHT22;1259;48.306;14.374;2023-08-30T10:48:34;16.60;99.90
2497;DHT22;1259;48.306;14.374;2023-08-30T10:51:01;16.60;99.90
2497;DHT22;1259;48.306;14.374;2023-08-30T10:53:31;16.70;99.90
2497;DHT22;1259;48.306;14.374;2023-08-30T10:56:07;16.70;99.90
2497;DHT22;1259;48.306;14.374;2023-08-30T10:58:40;16.80;99.90
2497;DHT22;1259;48.306;14.374;2023-08-30T11:01:07;16.90;99.90
2497;DHT22;1259;48.306;14.374;2023-08-30T11:03:38;16.90;99.90
2497;DHT22;1259;48.306;14.374;2023-08-30T11:06:05;16.90;99.90
2497;DHT22;1259;48.306;14.374;2023-08-30T11:08:33;16.80;99.90
2497;DHT22;1259;48.306;14.374;2023-08-30T11:11:02;16.70;99.90
2497;DHT22;1259;48.306;14.374;2023-08-30T11:13:30;16.80;99.90
2497;DHT22;1259;48.306;14.374;2023-08-30T11:15:59;16.70;99.90
2497;DHT22;1259;48.306;14.374;2023-08-30T11:18:26;16.70;99.90
2497;DHT22;1259;48.306;14.374;2023-08-30T11:20:53;16.70;99.90
2497;DHT22;1259;48.306;14.374;2023-08-30T11:23:20;16.70;99.90
2497;DHT22;1259;48.306;14.374;2023-08-30T11:25:50;16.80;99.90
2497;DHT22;1259;48.306;14.374;2023-08-30T11:28:21;16.80;99.90
2497;DHT22;1259;48.306;14.374;2023-08-30T11:30:47;16.70;99.90
2497;DHT22;1259;48.306;14.374;2023-08-30T11:33:16;16.70;99.90
2497;DHT22;1259;48.306;14.374;2023-08-30T11:35:43;16.70;99.90
2497;DHT22;1259;48.306;14.374;2023-08-30T11:38:09;16.70;99.90
2497;DHT22;1259;48.306;14.374;2023-08-30T11:40:36;16.60;99.90
2497;DHT22;1259;48.306;14.374;2023-08-30T11:43:04;16.80;99.90
2497;DHT22;1259;48.306;14.374;2023-08-30T11:45:32;16.70;99.90
2497;DHT22;1259;48.306;14.374;2023-08-30T11:47:59;16.70;99.90
2497;DHT22;1259;48.306;14.374;2023-08-30T11:50:25;16.70;99.90
2497;DHT22;1259;48.306;14.374;2023-08-30T11:52:52;16.50;99.90
2497;DHT22;1259;48.306;14.374;2023-08-30T11:55:19;16.40;99.90
2497;DHT22;1259;48.306;14.374;2023-08-30T11:57:48;16.40;99.90
2497;DHT22;1259;48.306;14.374;2023-08-30T12:00:18;16.40;99.90
2497;DHT22;1259;48.306;14.374;2023-08-30T12:02:45;16.20;99.90
2497;DHT22;1259;48.306;14.374;2023-08-30T12:05:12;16.20;99.90
2497;DHT22;1259;48.306;14.374;2023-08-30T12:07:39;16.10;99.90
2497;DHT22;1259;48.306;14.374;2023-08-30T12:10:06;16.10;99.90
2497;DHT22;1259;48.306;14.374;2023-08-30T12:12:34;16.10;99.90
2497;DHT22;1259;48.306;14.374;2023-08-30T12:15:04;16.10;99.90
2497;DHT22;1259;48.306;14.374;2023-08-30T12:17:35;16.10;99.90
2497;DHT22;1259;48.306;14.374;2023-08-30T12:20:02;16.00;99.90
2497;DHT22;1259;48.306;14.374;2023-08-30T12:22:38;16.00;99.90
2497;DHT22;1259;48.306;14.374;2023-08-30T12:25:15;15.80;99.90
2497;DHT22;1259;48.306;14.374;2023-08-30T12:27:41;15.70;99.90
2497;DHT22;1259;48.306;14.374;2023-08-30T12:30:08;15.60;99.90
2497;DHT22;1259;48.306;14.374;2023-08-30T12:32:36;15.60;99.90
2497;DHT22;1259;48.306;14.374;2023-08-30T12:35:03;15.50;99.90
2497;DHT22;1259;48.306;14.374;2023-08-30T12:37:30;15.40;99.90
2497;DHT22;1259;48.306;14.374;2023-08-30T12:39:57;15.30;99.90
2497;DHT22;1259;48.306;14.374;2023-08-30T12:42:24;15.30;99.90
2497;DHT22;1259;48.306;14.374;2023-08-30T12:44:51;15.20;99.90
2497;DHT22;1259;48.306;14.374;2023-08-30T12:47:18;15.10;99.90
2497;DHT22;1259;48.306;14.374;2023-08-30T12:49:46;15.10;99.90
2497;DHT22;1259;48.306;14.374;2023-08-30T12:52:12;15.10;99.90
2497;DHT22;1259;48.306;14.374;2023-08-30T12:54:40;15.20;99.90
2497;DHT22;1259;48.306;14.374;2023-08-30T12:57:07;15.10;99.90
2497;DHT22;1259;48.306;14.374;2023-08-30T12:59:34;15.20;99.90
2497;DHT22;1259;48.306;14.374;2023-08-30T13:02:00;15.20;99.90
2497;DHT22;1259;48.306;14.374;2023-08-30T13:04:27;15.10;99.90
2497;DHT22;1259;48.306;14.374;2023-08-30T13:06:55;15.10;99.90
2497;DHT22;1259;48.306;14.374;2023-08-30T13:09:22;15.10;99.90
2497;DHT22;1259;48.306;14.374;2023-08-30T13:11:49;15.10;99.90
2497;DHT22;1259;48.306;14.374;2023-08-30T13:14:16;15.10;99.90
2497;DHT22;1259;48.306;14.374;2023-08-30T13:16:43;15.10;99.90
2497;DHT22;1259;48.306;14.374;2023-08-30T13:19:09;15.20;99.90
2497;DHT22;1259;48.306;14.374;2023-08-30T13:21:36;15.20;99.90
2497;DHT22;1259;48.306;14.374;2023-08-30T13:24:05;15.30;99.90
2497;DHT22;1259;48.306;14.374;2023-08-30T13:26:31;15.40;99.90
2497;DHT22;1259;48.306;14.374;2023-08-30T13:28:58;15.40;99.90
2497;DHT22;1259;48.306;14.374;2023-08-30T13:31:27;15.40;99.90
2497;DHT22;1259;48.306;14.374;2023-08-30T13:33:54;15.50;99.90
2497;DHT22;1259;48.306;14.374;2023-08-30T13:36:20;15.60;99.90
2497;DHT22;1259;48.306;14.374;2023-08-30T13:38:47;15.70;99.90
2497;DHT22;1259;48.306;14.374;2023-08-30T13:41:15;15.80;99.90
2497;DHT22;1259;48.306;14.374;2023-08-30T13:43:42;15.80;99.90
2497;DHT22;1259;48.306;14.374;2023-08-30T13:46:08;15.90;99.90
2497;DHT22;1259;48.306;14.374;2023-08-30T13:48:36;16.00;99.90
2497;DHT22;1259;48.306;14.374;2023-08-30T13:51:02;16.00;99.90
2497;DHT22;1259;48.306;14.374;2023-08-30T13:53:29;16.00;99.90
2497;DHT22;1259;48.306;14.374;2023-08-30T13:55:56;16.00;99.90
2497;DHT22;1259;48.306;14.374;2023-08-30T13:58:24;16.10;99.90
2497;DHT22;1259;48.306;14.374;2023-08-30T14:00:50;16.10;99.90
2497;DHT22;1259;48.306;14.374;2023-08-30T14:03:17;16.20;99.90
2497;DHT22;1259;48.306;14.374;2023-08-30T14:05:44;16.20;99.90
2497;DHT22;1259;48.306;14.374;2023-08-30T14:08:11;16.20;99.90
2497;DHT22;1259;48.306;14.374;2023-08-30T14:10:37;16.30;99.90
2497;DHT22;1259;48.306;14.374;2023-08-30T14:13:04;16.20;99.90
2497;DHT22;1259;48.306;14.374;2023-08-30T14:15:32;16.30;99.90
2497;DHT22;1259;48.306;14.374;2023-08-30T14:17:59;16.30;99.90
2497;DHT22;1259;48.306;14.374;2023-08-30T14:20:27;16.30;99.90
2497;DHT22;1259;48.306;14.374;2023-08-30T14:22:54;16.40;99.90
2497;DHT22;1259;48.306;14.374;2023-08-30T14:25:20;16.40;99.90
2497;DHT22;1259;48.306;14.374;2023-08-30T14:27:47;16.50;99.90
2497;DHT22;1259;48.306;14.374;2023-08-30T14:30:14;16.50;99.90
2497;DHT22;1259;48.306;14.374;2023-08-30T14:32:42;16.60;99.90
2497;DHT22;1259;48.306;14.374;2023-08-30T14:35:09;16.70;99.90
2497;DHT22;1259;48.306;14.374;2023-08-30T14:37:36;16.80;99.90
2497;DHT22;1259;48.306;14.374;2023-08-30T14:40:05;16.80;99.90
2497;DHT22;1259;48.306;14.374;2023-08-30T14:42:32;16.80;99.90
2497;DHT22;1259;48.306;14.374;2023-08-30T14:44:59;16.80;99.90
2497;DHT22;1259;48.306;14.374;2023-08-30T14:47:25;16.80;99.90
2497;DHT22;1259;48.306;14.374;2023-08-30T14:49:55;16.80;99.90
2497;DHT22;1259;48.306;14.374;2023-08-30T14:52:21;16.90;99.90
2497;DHT22;1259;48.306;14.374;2023-08-30T14:54:48;16.80;99.90
2497;DHT22;1259;48.306;14.374;2023-08-30T14:57:15;16.80;99.90
2497;DHT22;1259;48.306;14.374;2023-08-30T14:59:41;16.80;99.90
2497;DHT22;1259;48.306;14.374;2023-08-30T15:02:08;17.00;99.90
2497;DHT22;1259;48.306;14.374;2023-08-30T15:04:35;17.00;99.90
2497;DHT22;1259;48.306;14.374;2023-08-30T15:07:03;17.00;99.90
2497;DHT22;1259;48.306;14.374;2023-08-30T15:09:29;17.10;99.90
2497;DHT22;1259;48.306;14.374;2023-08-30T15:11:56;17.10;99.90
2497;DHT22;1259;48.306;14.374;2023-08-30T15:14:23;17.20;99.90
2497;DHT22;1259;48.306;14.374;2023-08-30T15:16:50;17.30;99.90
2497;DHT22;1259;48.306;14.374;2023-08-30T15:19:17;17.30;99.90
2497;DHT22;1259;48.306;14.374;2023-08-30T15:21:44;17.30;99.90
2497;DHT22;1259;48.306;14.374;2023-08-30T15:24:12;17.30;99.90
2497;DHT22;1259;48.306;14.374;2023-08-30T15:26:41;17.30;99.90
2497;DHT22;1259;48.306;14.374;2023-08-30T15:29:08;17.30;99.90
2497;DHT22;1259;48.306;14.374;2023-08-30T15:31:34;17.30;99.90
2497;DHT22;1259;48.306;14.374;2023-08-30T15:34:01;17.30;99.90
2497;DHT22;1259;48.306;14.374;2023-08-30T15:36:29;17.40;99.90
2497;DHT22;1259;48.306;14.374;2023-08-30T15:38:56;17.30;99.90
2497;DHT22;1259;48.306;14.374;2023-08-30T15:41:24;17.30;99.90
2497;DHT22;1259;48.306;14.374;2023-08-30T15:43:50;17.30;99.90
2497;DHT22;1259;48.306;14.374;2023-08-30T15:46:17;17.40;99.90